sensor_id;sensor_type;location;lat;lon;timestamp;pressure;altitude;pressure_sealevel;temperature;humidity
46944;BME280;32678;43.852;25.952;2023-04-30T00:01:01;100919.31;;;15.14;46.90
46944;BME280;32678;43.852;25.952;2023-04-30T00:05:58;100919.84;;;15.04;47.22
46944;BME280;32678;43.852;25.952;2023-04-30T00:10:56;100914.06;;;14.60;46.79
46944;BME280;32678;43.852;25.952;2023-04-30T00:15:52;100893.75;;;13.84;48.28
46944;BME280;32678;43.852;25.952;2023-04-30T00:20:49;100910.78;;;13.77;48.71
46944;BME280;32678;43.852;25.952;2023-04-30T00:25:48;100910.63;;;13.60;49.45
46944;BME280;32678;43.852;25.952;2023-04-30T00:30:45;100907.28;;;13.56;50.07
46944;BME280;32678;43.852;25.952;2023-04-30T00:35:44;100909.00;;;13.37;50.45
46944;BME280;32678;43.852;25.952;2023-04-30T00:40:41;100898.66;;;13.32;50.53
46944;BME280;32678;43.852;25.952;2023-04-30T00:45:38;100898.56;;;13.14;51.28
46944;BME280;32678;43.852;25.952;2023-04-30T00:50:36;100895.41;;;13.26;50.67
46944;BME280;32678;43.852;25.952;2023-04-30T00:55:34;100896.06;;;13.31;50.85
46944;BME280;32678;43.852;25.952;2023-04-30T01:00:31;100890.59;;;13.35;50.61
46944;BME280;32678;43.852;25.952;2023-04-30T01:05:28;100889.69;;;13.77;49.62
46944;BME280;32678;43.852;25.952;2023-04-30T01:10:29;100891.03;;;14.06;49.70
46944;BME280;32678;43.852;25.952;2023-04-30T01:15:29;100863.34;;;13.77;48.85
46944;BME280;32678;43.852;25.952;2023-04-30T01:20:26;100879.88;;;13.80;49.87
46944;BME280;32678;43.852;25.952;2023-04-30T01:25:43;100883.09;;;13.87;48.87
46944;BME280;32678;43.852;25.952;2023-04-30T01:30:44;100889.09;;;13.50;49.83
46944;BME280;32678;43.852;25.952;2023-04-30T01:35:53;100880.94;;;13.36;50.04
46944;BME280;32678;43.852;25.952;2023-04-30T01:40:54;100876.13;;;13.03;50.80
46944;BME280;32678;43.852;25.952;2023-04-30T01:45:56;100869.31;;;13.20;50.47
46944;BME280;32678;43.852;25.952;2023-04-30T01:50:57;100863.09;;;13.22;51.07
46944;BME280;32678;43.852;25.952;2023-04-30T01:55:58;100859.75;;;13.19;50.99
46944;BME280;32678;43.852;25.952;2023-04-30T02:00:58;100861.84;;;13.31;50.50
46944;BME280;32678;43.852;25.952;2023-04-30T02:05:55;100863.34;;;13.36;50.16
46944;BME280;32678;43.852;25.952;2023-04-30T02:10:53;100865.28;;;13.53;50.85
46944;BME280;32678;43.852;25.952;2023-04-30T02:15:52;100868.16;;;13.87;50.56
46944;BME280;32678;43.852;25.952;2023-04-30T02:20:50;100863.41;;;14.52;49.71
46944;BME280;32678;43.852;25.952;2023-04-30T02:25:47;100867.91;;;14.68;48.14
46944;BME280;32678;43.852;25.952;2023-04-30T02:30:44;100866.06;;;13.94;48.65
46944;BME280;32678;43.852;25.952;2023-04-30T02:35:41;100875.72;;;13.55;49.61
46944;BME280;32678;43.852;25.952;2023-04-30T02:40:38;100877.03;;;13.44;49.94
46944;BME280;32678;43.852;25.952;2023-04-30T02:45:36;100875.22;;;12.83;50.99
46944;BME280;32678;43.852;25.952;2023-04-30T02:50:33;100870.69;;;12.65;51.73
46944;BME280;32678;43.852;25.952;2023-04-30T02:55:29;100878.16;;;12.53;52.11
46944;BME280;32678;43.852;25.952;2023-04-30T03:00:28;100875.56;;;12.30;53.13
46944;BME280;32678;43.852;25.952;2023-04-30T03:05:26;100889.38;;;12.35;53.36
46944;BME280;32678;43.852;25.952;2023-04-30T03:10:22;100886.75;;;12.35;53.15
46944;BME280;32678;43.852;25.952;2023-04-30T03:15:19;100888.03;;;12.02;54.48
46944;BME280;32678;43.852;25.952;2023-04-30T03:20:17;100893.19;;;12.03;54.65
46944;BME280;32678;43.852;25.952;2023-04-30T03:25:14;100900.00;;;12.32;54.48
46944;BME280;32678;43.852;25.952;2023-04-30T03:30:10;100898.44;;;12.27;54.17
46944;BME280;32678;43.852;25.952;2023-04-30T03:35:07;100898.59;;;12.24;53.97
46944;BME280;32678;43.852;25.952;2023-04-30T03:40:07;100915.84;;;12.54;54.13
46944;BME280;32678;43.852;25.952;2023-04-30T03:45:04;100917.56;;;12.55;54.37
46944;BME280;32678;43.852;25.952;2023-04-30T03:50:02;100923.25;;;12.88;53.97
46944;BME280;32678;43.852;25.952;2023-04-30T03:54:59;100925.53;;;12.97;52.63
46944;BME280;32678;43.852;25.952;2023-04-30T03:59:56;100921.34;;;12.91;52.86
46944;BME280;32678;43.852;25.952;2023-04-30T04:04:53;100921.06;;;13.21;52.11
46944;BME280;32678;43.852;25.952;2023-04-30T04:09:50;100919.09;;;12.61;52.87
46944;BME280;32678;43.852;25.952;2023-04-30T04:14:47;100919.91;;;12.39;54.00
46944;BME280;32678;43.852;25.952;2023-04-30T04:19:44;100914.28;;;12.48;54.33
46944;BME280;32678;43.852;25.952;2023-04-30T04:24:42;100918.22;;;12.37;53.95
46944;BME280;32678;43.852;25.952;2023-04-30T04:29:42;100917.50;;;12.33;54.14
46944;BME280;32678;43.852;25.952;2023-04-30T04:34:39;100922.53;;;12.84;54.08
46944;BME280;32678;43.852;25.952;2023-04-30T04:39:36;100928.53;;;12.88;54.02
46944;BME280;32678;43.852;25.952;2023-04-30T04:44:33;100926.47;;;12.51;55.39
46944;BME280;32678;43.852;25.952;2023-04-30T04:49:30;100922.94;;;12.29;56.93
46944;BME280;32678;43.852;25.952;2023-04-30T04:54:26;100925.53;;;12.52;56.90
46944;BME280;32678;43.852;25.952;2023-04-30T04:59:24;100928.72;;;12.83;55.37
46944;BME280;32678;43.852;25.952;2023-04-30T05:04:21;100929.25;;;12.70;57.36
46944;BME280;32678;43.852;25.952;2023-04-30T05:09:18;100923.25;;;12.43;58.12
46944;BME280;32678;43.852;25.952;2023-04-30T05:14:15;100932.81;;;12.45;58.82
46944;BME280;32678;43.852;25.952;2023-04-30T05:19:13;100939.09;;;12.65;57.97
46944;BME280;32678;43.852;25.952;2023-04-30T05:24:09;100937.97;;;12.48;58.22
46944;BME280;32678;43.852;25.952;2023-04-30T05:29:06;100944.69;;;12.32;58.52
46944;BME280;32678;43.852;25.952;2023-04-30T05:34:03;100949.94;;;12.79;58.51
46944;BME280;32678;43.852;25.952;2023-04-30T05:39:03;100950.06;;;12.97;57.70
46944;BME280;32678;43.852;25.952;2023-04-30T05:44:00;100956.91;;;13.45;56.63
46944;BME280;32678;43.852;25.952;2023-04-30T05:49:00;100950.22;;;13.99;55.71
46944;BME280;32678;43.852;25.952;2023-04-30T05:53:56;100948.00;;;14.28;54.37
46944;BME280;32678;43.852;25.952;2023-04-30T05:58:54;100946.38;;;14.26;54.47
46944;BME280;32678;43.852;25.952;2023-04-30T06:03:50;100927.69;;;14.30;54.52
46944;BME280;32678;43.852;25.952;2023-04-30T06:08:47;100944.03;;;14.76;53.64
46944;BME280;32678;43.852;25.952;2023-04-30T06:13:47;100948.72;;;15.07;51.94
46944;BME280;32678;43.852;25.952;2023-04-30T06:18:44;100946.19;;;14.87;49.85
46944;BME280;32678;43.852;25.952;2023-04-30T06:23:41;100958.66;;;15.38;50.15
46944;BME280;32678;43.852;25.952;2023-04-30T06:28:38;100935.94;;;15.52;48.70
46944;BME280;32678;43.852;25.952;2023-04-30T06:33:35;100965.09;;;15.68;49.09
46944;BME280;32678;43.852;25.952;2023-04-30T06:38:32;100960.34;;;15.22;50.49
46944;BME280;32678;43.852;25.952;2023-04-30T06:43:29;100959.66;;;15.54;50.48
46944;BME280;32678;43.852;25.952;2023-04-30T06:48:29;100967.97;;;15.81;49.92
46944;BME280;32678;43.852;25.952;2023-04-30T06:53:25;100966.53;;;15.74;50.54
46944;BME280;32678;43.852;25.952;2023-04-30T06:58:23;100972.38;;;15.80;50.79
46944;BME280;32678;43.852;25.952;2023-04-30T07:03:19;100963.97;;;16.07;50.49
46944;BME280;32678;43.852;25.952;2023-04-30T07:08:16;100973.44;;;16.43;50.25
46944;BME280;32678;43.852;25.952;2023-04-30T07:13:13;100973.44;;;16.61;49.73
46944;BME280;32678;43.852;25.952;2023-04-30T07:18:12;100970.97;;;16.73;49.34
46944;BME280;32678;43.852;25.952;2023-04-30T07:23:08;100969.84;;;16.77;49.34
46944;BME280;32678;43.852;25.952;2023-04-30T07:28:07;100965.75;;;16.87;49.20
46944;BME280;32678;43.852;25.952;2023-04-30T07:33:03;100969.34;;;17.18;48.94
46944;BME280;32678;43.852;25.952;2023-04-30T07:38:01;100967.53;;;17.18;48.78
46944;BME280;32678;43.852;25.952;2023-04-30T07:42:58;100961.91;;;16.93;47.60
46944;BME280;32678;43.852;25.952;2023-04-30T07:47:54;100966.53;;;17.05;47.21
46944;BME280;32678;43.852;25.952;2023-04-30T07:52:51;100958.28;;;17.25;45.59
46944;BME280;32678;43.852;25.952;2023-04-30T07:57:48;100968.38;;;17.35;44.45
46944;BME280;32678;43.852;25.952;2023-04-30T08:02:45;100967.00;;;17.43;45.13
46944;BME280;32678;43.852;25.952;2023-04-30T08:07:43;100963.72;;;17.54;43.78
46944;BME280;32678;43.852;25.952;2023-04-30T08:12:40;100949.63;;;17.53;44.11
46944;BME280;32678;43.852;25.952;2023-04-30T08:17:37;100952.50;;;17.64;44.20
46944;BME280;32678;43.852;25.952;2023-04-30T08:22:34;100951.03;;;17.89;43.10
46944;BME280;32678;43.852;25.952;2023-04-30T08:27:31;100948.91;;;18.24;42.28
46944;BME280;32678;43.852;25.952;2023-04-30T08:32:28;100946.44;;;17.92;42.98
46944;BME280;32678;43.852;25.952;2023-04-30T08:37:26;100946.81;;;18.14;41.19
46944;BME280;32678;43.852;25.952;2023-04-30T08:42:24;100953.56;;;18.20;42.39
46944;BME280;32678;43.852;25.952;2023-04-30T08:47:21;100941.78;;;18.24;42.36
46944;BME280;32678;43.852;25.952;2023-04-30T08:52:22;100921.22;;;18.42;41.85
46944;BME280;32678;43.852;25.952;2023-04-30T08:57:20;100938.56;;;18.47;42.55
46944;BME280;32678;43.852;25.952;2023-04-30T09:02:17;100935.09;;;18.88;41.63
46944;BME280;32678;43.852;25.952;2023-04-30T09:07:14;100928.28;;;18.84;41.77
46944;BME280;32678;43.852;25.952;2023-04-30T09:12:11;100929.19;;;18.97;42.32
46944;BME280;32678;43.852;25.952;2023-04-30T09:17:12;100912.69;;;18.92;41.98
46944;BME280;32678;43.852;25.952;2023-04-30T09:22:20;100916.72;;;19.12;39.81
46944;BME280;32678;43.852;25.952;2023-04-30T09:27:17;100909.97;;;19.20;39.85
46944;BME280;32678;43.852;25.952;2023-04-30T09:32:17;100900.44;;;19.43;38.89
46944;BME280;32678;43.852;25.952;2023-04-30T09:37:14;100886.91;;;19.33;40.51
46944;BME280;32678;43.852;25.952;2023-04-30T09:42:11;100889.34;;;19.63;39.68
46944;BME280;32678;43.852;25.952;2023-04-30T09:47:09;100889.97;;;19.54;37.64
46944;BME280;32678;43.852;25.952;2023-04-30T09:52:07;100890.28;;;19.62;38.16
46944;BME280;32678;43.852;25.952;2023-04-30T09:57:04;100859.69;;;19.42;38.75
46944;BME280;32678;43.852;25.952;2023-04-30T10:02:06;100880.19;;;19.67;37.33
46944;BME280;32678;43.852;25.952;2023-04-30T10:07:05;100883.25;;;19.61;38.04
46944;BME280;32678;43.852;25.952;2023-04-30T10:12:03;100876.22;;;19.60;37.23
46944;BME280;32678;43.852;25.952;2023-04-30T10:17:02;100863.91;;;19.84;37.38
46944;BME280;32678;43.852;25.952;2023-04-30T10:22:01;100876.56;;;19.81;37.44
46944;BME280;32678;43.852;25.952;2023-04-30T10:26:58;100863.91;;;19.97;36.63
46944;BME280;32678;43.852;25.952;2023-04-30T10:31:57;100871.88;;;20.22;36.79
46944;BME280;32678;43.852;25.952;2023-04-30T10:36:55;100863.88;;;20.22;37.33
46944;BME280;32678;43.852;25.952;2023-04-30T10:41:59;100854.69;;;20.39;37.29
46944;BME280;32678;43.852;25.952;2023-04-30T10:47:00;100859.06;;;20.40;37.09
46944;BME280;32678;43.852;25.952;2023-04-30T10:51:58;100856.81;;;20.47;37.36
46944;BME280;32678;43.852;25.952;2023-04-30T10:57:07;100855.22;;;20.44;36.81
46944;BME280;32678;43.852;25.952;2023-04-30T11:02:07;100853.56;;;20.18;36.76
46944;BME280;32678;43.852;25.952;2023-04-30T11:07:08;100861.06;;;20.49;35.79
46944;BME280;32678;43.852;25.952;2023-04-30T11:12:09;100859.81;;;20.42;35.27
46944;BME280;32678;43.852;25.952;2023-04-30T11:17:06;100859.53;;;20.58;35.62
46944;BME280;32678;43.852;25.952;2023-04-30T11:22:17;100857.72;;;20.58;34.58
46944;BME280;32678;43.852;25.952;2023-04-30T11:27:21;100853.16;;;20.60;34.49
46944;BME280;32678;43.852;25.952;2023-04-30T11:32:19;100853.81;;;20.51;35.11
46944;BME280;32678;43.852;25.952;2023-04-30T11:37:18;100851.69;;;20.80;34.97
46944;BME280;32678;43.852;25.952;2023-04-30T11:42:17;100854.78;;;20.98;34.93
46944;BME280;32678;43.852;25.952;2023-04-30T11:47:14;100835.63;;;21.16;34.08
46944;BME280;32678;43.852;25.952;2023-04-30T11:52:12;100831.03;;;20.95;34.96
46944;BME280;32678;43.852;25.952;2023-04-30T11:57:09;100827.19;;;20.99;35.29
46944;BME280;32678;43.852;25.952;2023-04-30T12:02:06;100820.53;;;21.04;35.68
46944;BME280;32678;43.852;25.952;2023-04-30T12:07:06;100820.09;;;20.87;35.28
46944;BME280;32678;43.852;25.952;2023-04-30T12:12:04;100820.13;;;20.98;35.18
46944;BME280;32678;43.852;25.952;2023-04-30T12:17:01;100809.09;;;21.15;34.76
46944;BME280;32678;43.852;25.952;2023-04-30T12:22:00;100800.31;;;21.13;35.81
46944;BME280;32678;43.852;25.952;2023-04-30T12:26:58;100802.72;;;21.29;35.51
46944;BME280;32678;43.852;25.952;2023-04-30T12:31:55;100787.69;;;21.39;34.56
46944;BME280;32678;43.852;25.952;2023-04-30T12:36:56;100785.88;;;21.50;34.94
46944;BME280;32678;43.852;25.952;2023-04-30T12:41:53;100781.66;;;21.59;35.00
46944;BME280;32678;43.852;25.952;2023-04-30T12:46:51;100758.59;;;21.47;35.66
46944;BME280;32678;43.852;25.952;2023-04-30T12:51:54;100771.25;;;21.78;35.66
46944;BME280;32678;43.852;25.952;2023-04-30T12:56:58;100770.13;;;21.81;34.88
46944;BME280;32678;43.852;25.952;2023-04-30T13:02:04;100762.75;;;21.84;35.48
46944;BME280;32678;43.852;25.952;2023-04-30T13:07:02;100759.47;;;21.70;35.31
46944;BME280;32678;43.852;25.952;2023-04-30T13:11:59;100753.28;;;21.69;36.54
46944;BME280;32678;43.852;25.952;2023-04-30T13:16:56;100757.88;;;21.67;35.82
46944;BME280;32678;43.852;25.952;2023-04-30T13:21:53;100747.44;;;21.75;35.42
46944;BME280;32678;43.852;25.952;2023-04-30T13:26:51;100741.03;;;21.89;35.63
46944;BME280;32678;43.852;25.952;2023-04-30T13:31:47;100715.19;;;21.78;35.87
46944;BME280;32678;43.852;25.952;2023-04-30T13:36:44;100733.63;;;22.03;35.99
46944;BME280;32678;43.852;25.952;2023-04-30T13:41:42;100736.88;;;22.18;35.41
46944;BME280;32678;43.852;25.952;2023-04-30T13:46:39;100736.34;;;22.24;35.31
46944;BME280;32678;43.852;25.952;2023-04-30T13:51:36;100728.88;;;22.18;34.79
46944;BME280;32678;43.852;25.952;2023-04-30T13:56:35;100735.25;;;22.38;35.46
46944;BME280;32678;43.852;25.952;2023-04-30T14:01:31;100731.72;;;22.37;34.52
46944;BME280;32678;43.852;25.952;2023-04-30T14:06:29;100727.72;;;22.43;34.24
46944;BME280;32678;43.852;25.952;2023-04-30T14:11:27;100734.34;;;22.48;34.67
46944;BME280;32678;43.852;25.952;2023-04-30T14:16:25;100734.22;;;22.50;34.71
46944;BME280;32678;43.852;25.952;2023-04-30T14:21:23;100731.28;;;22.53;34.45
46944;BME280;32678;43.852;25.952;2023-04-30T14:26:21;100731.50;;;22.61;33.79
46944;BME280;32678;43.852;25.952;2023-04-30T14:31:18;100721.53;;;22.63;34.19
46944;BME280;32678;43.852;25.952;2023-04-30T14:36:14;100726.88;;;22.63;34.10
46944;BME280;32678;43.852;25.952;2023-04-30T14:41:11;100737.56;;;22.74;33.98
46944;BME280;32678;43.852;25.952;2023-04-30T14:46:09;100732.09;;;22.76;34.31
46944;BME280;32678;43.852;25.952;2023-04-30T14:51:06;100731.25;;;22.75;33.26
46944;BME280;32678;43.852;25.952;2023-04-30T14:56:03;100730.97;;;22.78;33.72
46944;BME280;32678;43.852;25.952;2023-04-30T15:01:01;100733.41;;;22.81;34.03
46944;BME280;32678;43.852;25.952;2023-04-30T15:05:59;100734.94;;;22.84;33.89
46944;BME280;32678;43.852;25.952;2023-04-30T15:10:57;100734.59;;;22.77;32.85
46944;BME280;32678;43.852;25.952;2023-04-30T15:15:54;100739.44;;;22.83;32.47
46944;BME280;32678;43.852;25.952;2023-04-30T15:20:51;100742.50;;;22.79;33.14
46944;BME280;32678;43.852;25.952;2023-04-30T15:25:52;100737.16;;;22.79;32.50
46944;BME280;32678;43.852;25.952;2023-04-30T15:30:49;100730.78;;;22.70;32.66
46944;BME280;32678;43.852;25.952;2023-04-30T15:35:46;100716.06;;;22.65;32.81
46944;BME280;32678;43.852;25.952;2023-04-30T15:40:43;100731.00;;;22.67;33.09
46944;BME280;32678;43.852;25.952;2023-04-30T15:45:41;100728.69;;;22.63;33.70
46944;BME280;32678;43.852;25.952;2023-04-30T15:50:38;100739.38;;;22.63;33.92
46944;BME280;32678;43.852;25.952;2023-04-30T15:55:35;100734.41;;;22.58;34.00
46944;BME280;32678;43.852;25.952;2023-04-30T16:00:31;100736.41;;;22.56;33.83
46944;BME280;32678;43.852;25.952;2023-04-30T16:05:29;100742.97;;;22.52;34.06
46944;BME280;32678;43.852;25.952;2023-04-30T16:10:26;100752.19;;;22.48;34.36
46944;BME280;32678;43.852;25.952;2023-04-30T16:15:23;100751.00;;;22.41;34.37
46944;BME280;32678;43.852;25.952;2023-04-30T16:20:21;100751.28;;;22.38;34.75
46944;BME280;32678;43.852;25.952;2023-04-30T16:25:23;100757.69;;;22.35;34.44
46944;BME280;32678;43.852;25.952;2023-04-30T16:30:19;100765.25;;;22.30;34.33
46944;BME280;32678;43.852;25.952;2023-04-30T16:35:16;100761.88;;;22.28;34.63
46944;BME280;32678;43.852;25.952;2023-04-30T16:40:13;100744.66;;;22.10;34.98
46944;BME280;32678;43.852;25.952;2023-04-30T16:45:11;100776.19;;;22.16;35.36
46944;BME280;32678;43.852;25.952;2023-04-30T16:50:07;100772.09;;;22.12;35.52
46944;BME280;32678;43.852;25.952;2023-04-30T16:55:04;100774.03;;;22.10;35.83
46944;BME280;32678;43.852;25.952;2023-04-30T17:00:03;100775.13;;;22.08;35.67
46944;BME280;32678;43.852;25.952;2023-04-30T17:05:02;100777.44;;;22.01;36.11
46944;BME280;32678;43.852;25.952;2023-04-30T17:09:58;100777.44;;;21.79;35.79
46944;BME280;32678;43.852;25.952;2023-04-30T17:14:55;100789.06;;;21.78;35.68
46944;BME280;32678;43.852;25.952;2023-04-30T17:19:52;100789.44;;;21.73;35.92
46944;BME280;32678;43.852;25.952;2023-04-30T17:24:50;100793.91;;;21.73;36.10
46944;BME280;32678;43.852;25.952;2023-04-30T17:29:47;100791.59;;;21.57;35.74
46944;BME280;32678;43.852;25.952;2023-04-30T17:34:44;100786.63;;;21.75;36.27
46944;BME280;32678;43.852;25.952;2023-04-30T17:39:41;100800.72;;;21.77;39.77
46944;BME280;32678;43.852;25.952;2023-04-30T17:44:39;100792.31;;;21.48;41.43
46944;BME280;32678;43.852;25.952;2023-04-30T17:49:36;100808.72;;;21.54;39.44
46944;BME280;32678;43.852;25.952;2023-04-30T17:54:32;100824.47;;;21.57;39.10
46944;BME280;32678;43.852;25.952;2023-04-30T17:59:29;100832.34;;;21.59;38.95
46944;BME280;32678;43.852;25.952;2023-04-30T18:04:27;100819.91;;;21.36;38.94
46944;BME280;32678;43.852;25.952;2023-04-30T18:09:23;100840.22;;;21.49;38.88
46944;BME280;32678;43.852;25.952;2023-04-30T18:14:20;100850.50;;;21.43;38.70
46944;BME280;32678;43.852;25.952;2023-04-30T18:19:17;100853.28;;;21.41;39.04
46944;BME280;32678;43.852;25.952;2023-04-30T18:24:15;100862.22;;;21.29;39.14
46944;BME280;32678;43.852;25.952;2023-04-30T18:29:12;100875.31;;;21.32;39.03
46944;BME280;32678;43.852;25.952;2023-04-30T18:34:14;100878.59;;;21.25;38.70
46944;BME280;32678;43.852;25.952;2023-04-30T18:39:12;100888.28;;;21.26;38.52
46944;BME280;32678;43.852;25.952;2023-04-30T18:44:10;100888.66;;;21.32;38.61
46944;BME280;32678;43.852;25.952;2023-04-30T18:49:08;100891.09;;;21.35;38.64
46944;BME280;32678;43.852;25.952;2023-04-30T18:54:05;100891.66;;;21.28;39.24
46944;BME280;32678;43.852;25.952;2023-04-30T18:59:01;100900.75;;;21.25;39.20
46944;BME280;32678;43.852;25.952;2023-04-30T19:03:59;100897.59;;;21.20;39.08
46944;BME280;32678;43.852;25.952;2023-04-30T19:08:56;100911.03;;;21.18;39.08
46944;BME280;32678;43.852;25.952;2023-04-30T19:13:54;100921.34;;;20.87;40.29
46944;BME280;32678;43.852;25.952;2023-04-30T19:18:51;100926.13;;;20.58;39.56
46944;BME280;32678;43.852;25.952;2023-04-30T19:23:48;100935.41;;;19.89;40.71
46944;BME280;32678;43.852;25.952;2023-04-30T19:28:45;100948.69;;;19.37;44.81
46944;BME280;32678;43.852;25.952;2023-04-30T19:33:42;100948.56;;;18.99;46.50
46944;BME280;32678;43.852;25.952;2023-04-30T19:38:41;100955.63;;;18.43;49.13
46944;BME280;32678;43.852;25.952;2023-04-30T19:43:38;100958.84;;;18.34;48.66
46944;BME280;32678;43.852;25.952;2023-04-30T19:48:35;100955.13;;;18.08;48.48
46944;BME280;32678;43.852;25.952;2023-04-30T19:53:32;100965.31;;;18.58;47.94
46944;BME280;32678;43.852;25.952;2023-04-30T19:58:29;100962.66;;;18.58;47.94
46944;BME280;32678;43.852;25.952;2023-04-30T20:03:26;100976.88;;;18.72;47.23
46944;BME280;32678;43.852;25.952;2023-04-30T20:08:23;100983.72;;;18.76;46.82
46944;BME280;32678;43.852;25.952;2023-04-30T20:13:20;100994.72;;;18.27;48.23
46944;BME280;32678;43.852;25.952;2023-04-30T20:18:19;101018.16;;;18.05;48.75
46944;BME280;32678;43.852;25.952;2023-04-30T20:23:16;101019.28;;;18.01;49.37
46944;BME280;32678;43.852;25.952;2023-04-30T20:28:14;101025.31;;;17.89;50.41
46944;BME280;32678;43.852;25.952;2023-04-30T20:33:11;101035.84;;;17.90;50.95
46944;BME280;32678;43.852;25.952;2023-04-30T20:38:08;101054.09;;;18.10;50.01
46944;BME280;32678;43.852;25.952;2023-04-30T20:43:06;101052.81;;;18.32;51.18
46944;BME280;32678;43.852;25.952;2023-04-30T20:48:05;101043.34;;;18.42;50.39
46944;BME280;32678;43.852;25.952;2023-04-30T20:53:02;101048.84;;;17.95;52.33
46944;BME280;32678;43.852;25.952;2023-04-30T20:57:59;101041.19;;;17.74;53.10
46944;BME280;32678;43.852;25.952;2023-04-30T21:02:57;101048.88;;;18.09;52.09
46944;BME280;32678;43.852;25.952;2023-04-30T21:07:54;101049.94;;;18.21;51.58
46944;BME280;32678;43.852;25.952;2023-04-30T21:12:55;101060.09;;;18.28;51.90
46944;BME280;32678;43.852;25.952;2023-04-30T21:17:53;101044.19;;;18.42;51.29
46944;BME280;32678;43.852;25.952;2023-04-30T21:22:50;101042.59;;;18.40;51.25
46944;BME280;32678;43.852;25.952;2023-04-30T21:27:50;101049.59;;;18.41;51.19
46944;BME280;32678;43.852;25.952;2023-04-30T21:32:47;101042.25;;;18.60;50.59
46944;BME280;32678;43.852;25.952;2023-04-30T21:37:44;101035.31;;;18.72;50.19
46944;BME280;32678;43.852;25.952;2023-04-30T21:42:41;101046.63;;;18.75;49.67
46944;BME280;32678;43.852;25.952;2023-04-30T21:47:38;101052.09;;;18.72;49.51
46944;BME280;32678;43.852;25.952;2023-04-30T21:52:35;101048.59;;;18.72;49.80
46944;BME280;32678;43.852;25.952;2023-04-30T21:57:31;101042.16;;;18.62;50.10
46944;BME280;32678;43.852;25.952;2023-04-30T22:02:29;101032.47;;;18.75;49.40
46944;BME280;32678;43.852;25.952;2023-04-30T22:07:28;101042.41;;;18.57;50.00
46944;BME280;32678;43.852;25.952;2023-04-30T22:12:24;101049.63;;;18.83;49.39
46944;BME280;32678;43.852;25.952;2023-04-30T22:17:21;101059.69;;;18.92;49.09
46944;BME280;32678;43.852;25.952;2023-04-30T22:22:19;101069.94;;;18.56;51.65
46944;BME280;32678;43.852;25.952;2023-04-30T22:27:16;101053.16;;;18.55;53.04
46944;BME280;32678;43.852;25.952;2023-04-30T22:32:12;101062.38;;;18.34;51.90
46944;BME280;32678;43.852;25.952;2023-04-30T22:37:12;101061.13;;;18.11;52.53
46944;BME280;32678;43.852;25.952;2023-04-30T22:42:09;101054.69;;;17.86;53.31
46944;BME280;32678;43.852;25.952;2023-04-30T22:47:06;101067.72;;;17.43;54.92
46944;BME280;32678;43.852;25.952;2023-04-30T22:52:03;101063.03;;;16.68;58.62
46944;BME280;32678;43.852;25.952;2023-04-30T22:56:59;101058.91;;;17.27;57.18
46944;BME280;32678;43.852;25.952;2023-04-30T23:02:00;101054.38;;;17.45;57.14
46944;BME280;32678;43.852;25.952;2023-04-30T23:06:57;101066.94;;;17.41;58.77
46944;BME280;32678;43.852;25.952;2023-04-30T23:11:54;101074.75;;;17.44;59.93
46944;BME280;32678;43.852;25.952;2023-04-30T23:16:50;101070.88;;;17.65;59.74
46944;BME280;32678;43.852;25.952;2023-04-30T23:21:48;101062.91;;;17.50;59.20
46944;BME280;32678;43.852;25.952;2023-04-30T23:26:45;101072.59;;;17.66;58.42
46944;BME280;32678;43.852;25.952;2023-04-30T23:31:42;101065.78;;;17.62;58.20
46944;BME280;32678;43.852;25.952;2023-04-30T23:36:39;101069.34;;;17.46;59.13
46944;BME280;32678;43.852;25.952;2023-04-30T23:41:36;101060.13;;;17.68;58.46
46944;BME280;32678;43.852;25.952;2023-04-30T23:46:33;101060.84;;;17.86;57.68
46944;BME280;32678;43.852;25.952;2023-04-30T23:51:30;101062.78;;;17.98;57.08
46944;BME280;32678;43.852;25.952;2023-04-30T23:56:27;101069.53;;;18.18;56.18
